KSYN/SYN METAR and TAF weather

Enter ICAO airport designator
Station Type Date Time Source
KSYN METAR 2021/06/22 23:15 UTC NOAA

KSYN 222315Z AUTO 00000KT 10SM CLR 23/07 A2983 RMK AO2 T02340071


Station Type Date Time Source
KSYN Decoded METAR 2021/06/22 23:15 UTC NOAA

Stanton, Stanton Airfield, MN, United States (KSYN) 44-28-31N 093-00-58W
Jun 22, 2021 - 07:15 PM EDT / 2021.06.22 2315 UTC
Wind: Calm:0
Visibility: 10 mile(s):0
Sky conditions: clear
Temperature: 74.1 F (23.4 C)
Dew Point: 44.8 F (7.1 C)
Relative Humidity: 35%
Pressure (altimeter): 29.83 in. Hg (1010 hPa)
ob: KSYN 222315Z AUTO 00000KT 10SM CLR 23/07 A2983 RMK AO2 T02340071
cycle: 23

Station Type Date Time Source
KSYN TAF UTC NOAA

Error!

Example: see airport list